createdAt,value
2023-02-26T00:01:47.282Z,1.50
2023-02-26T00:04:17.061Z,1.60
2023-02-26T00:06:55.570Z,1.70
2023-02-26T00:09:25.325Z,2.53
2023-02-26T00:11:54.173Z,1.60
2023-02-26T00:14:22.991Z,1.80
2023-02-26T00:17:17.152Z,1.53
2023-02-26T00:19:47.536Z,2.20
2023-02-26T00:22:16.881Z,1.70
2023-02-26T00:24:45.171Z,1.93
2023-02-26T00:27:13.871Z,1.50
2023-02-26T00:29:42.977Z,1.40
2023-02-26T00:32:12.984Z,1.50
2023-02-26T00:34:42.082Z,1.83
2023-02-26T00:37:25.707Z,1.53
2023-02-26T00:40:09.013Z,1.40
2023-02-26T00:42:37.889Z,1.60
2023-02-26T00:45:08.718Z,1.93
2023-02-26T00:47:46.554Z,1.77
2023-02-26T00:50:19.499Z,1.67
2023-02-26T00:53:03.562Z,1.80
2023-02-26T00:55:32.384Z,1.60
2023-02-26T00:58:01.061Z,1.43
2023-02-26T01:00:29.309Z,1.50
2023-02-26T01:02:58.942Z,1.77
2023-02-26T01:05:28.831Z,1.60
2023-02-26T01:08:07.409Z,1.80
2023-02-26T01:10:36.778Z,1.60
2023-02-26T01:13:05.978Z,1.70
2023-02-26T01:15:35.479Z,1.77
2023-02-26T01:18:10.770Z,1.40
2023-02-26T01:20:45.292Z,1.70
2023-02-26T01:23:19.552Z,1.70
2023-02-26T01:25:51.782Z,1.70
2023-02-26T01:28:21.040Z,1.80
2023-02-26T01:30:50.436Z,1.80
2023-02-26T01:33:27.168Z,1.50
2023-02-26T01:36:00.674Z,1.40
2023-02-26T01:38:40.537Z,1.33
2023-02-26T01:41:24.840Z,1.50
2023-02-26T01:44:21.622Z,1.47
2023-02-26T01:47:06.298Z,1.40
2023-02-26T01:49:36.073Z,1.40
2023-02-26T01:52:07.348Z,1.50
2023-02-26T01:54:39.656Z,1.40
2023-02-26T01:57:13.032Z,1.50
2023-02-26T01:59:46.248Z,1.77
2023-02-26T02:02:20.206Z,1.33
2023-02-26T02:04:49.477Z,1.47
2023-02-26T02:07:19.566Z,1.60
2023-02-26T02:09:55.159Z,1.30
2023-02-26T02:12:36.478Z,1.40
2023-02-26T02:15:16.971Z,1.47
2023-02-26T02:17:54.772Z,1.53
2023-02-26T02:21:37.059Z,1.50
2023-02-26T02:24:14.676Z,1.30
2023-02-26T02:27:01.335Z,1.30
2023-02-26T02:29:55.865Z,1.47
2023-02-26T02:32:29.910Z,1.33
2023-02-26T02:35:08.838Z,1.27
2023-02-26T02:37:43.921Z,1.40
2023-02-26T02:40:16.349Z,1.20
2023-02-26T02:42:49.247Z,1.40
2023-02-26T02:45:25.482Z,1.13
2023-02-26T02:48:00.411Z,1.53
2023-02-26T02:50:35.522Z,1.40
2023-02-26T02:53:09.362Z,1.20
2023-02-26T02:55:43.772Z,1.30
2023-02-26T02:58:16.266Z,1.37
2023-02-26T03:00:52.062Z,1.60
2023-02-26T03:03:29.214Z,1.50
2023-02-26T03:06:01.511Z,1.60
2023-02-26T03:08:35.731Z,1.50
2023-02-26T03:11:04.041Z,1.33
2023-02-26T03:13:33.594Z,1.33
2023-02-26T03:16:27.441Z,1.40
2023-02-26T03:19:06.803Z,1.50
2023-02-26T03:21:48.425Z,1.73
2023-02-26T03:24:33.450Z,1.53
2023-02-26T03:27:21.010Z,1.50
2023-02-26T03:29:55.883Z,1.60
2023-02-26T03:32:31.144Z,1.47
2023-02-26T03:35:06.638Z,1.50
2023-02-26T03:37:39.045Z,1.50
2023-02-26T03:40:12.912Z,1.60
2023-02-26T03:42:46.040Z,1.50
2023-02-26T03:45:18.172Z,1.63
2023-02-26T03:47:53.809Z,1.63
2023-02-26T03:50:32.419Z,2.00
2023-02-26T03:53:26.437Z,1.30
2023-02-26T03:56:06.903Z,1.83
2023-02-26T03:58:53.969Z,1.70
2023-02-26T04:01:59.631Z,1.30
2023-02-26T04:04:36.024Z,1.53
2023-02-26T04:07:05.813Z,1.67
2023-02-26T04:09:34.705Z,1.87
2023-02-26T04:12:02.998Z,1.50
2023-02-26T04:14:31.471Z,1.53
2023-02-26T04:16:59.777Z,1.40
2023-02-26T04:19:28.656Z,1.50
2023-02-26T04:21:57.203Z,1.80
2023-02-26T04:24:27.059Z,1.53
2023-02-26T04:26:58.610Z,1.60
2023-02-26T04:29:27.538Z,1.50
2023-02-26T04:31:56.030Z,1.70
2023-02-26T04:34:24.385Z,1.60
2023-02-26T04:36:54.524Z,1.73
2023-02-26T04:39:22.832Z,1.50
2023-02-26T04:41:53.037Z,2.00
2023-02-26T04:44:21.299Z,1.73
2023-02-26T04:46:49.562Z,1.57
2023-02-26T04:49:18.147Z,2.00
2023-02-26T04:51:46.795Z,1.93
2023-02-26T04:54:17.332Z,1.80
2023-02-26T04:56:45.578Z,1.73
2023-02-26T04:59:15.298Z,1.70
2023-02-26T05:01:43.628Z,1.53
2023-02-26T05:04:12.227Z,1.77
2023-02-26T05:06:42.948Z,2.10
2023-02-26T05:09:11.385Z,3.27
2023-02-26T05:11:39.640Z,4.70
2023-02-26T05:14:09.611Z,2.93
2023-02-26T05:16:39.890Z,1.93
2023-02-26T05:19:08.482Z,2.50
2023-02-26T05:21:37.275Z,2.53
2023-02-26T05:24:06.128Z,1.73
2023-02-26T05:26:34.461Z,1.97
2023-02-26T05:29:03.922Z,1.70
2023-02-26T05:31:32.228Z,1.70
2023-02-26T05:34:01.874Z,2.07
2023-02-26T05:36:30.074Z,1.77
2023-02-26T05:38:58.318Z,1.43
2023-02-26T05:41:26.511Z,1.60
2023-02-26T05:43:54.763Z,1.90
2023-02-26T05:46:23.311Z,1.87
2023-02-26T05:48:51.652Z,1.90
2023-02-26T05:51:21.658Z,1.50
2023-02-26T05:53:50.032Z,2.50
2023-02-26T05:56:18.422Z,1.90
2023-02-26T05:58:50.585Z,1.73
2023-02-26T06:01:18.935Z,1.67
2023-02-26T06:03:47.209Z,1.80
2023-02-26T06:06:18.501Z,1.97
2023-02-26T06:08:48.589Z,1.77
2023-02-26T06:11:16.807Z,2.30
2023-02-26T06:13:45.137Z,1.90
2023-02-26T06:16:13.516Z,1.60
2023-02-26T06:18:41.742Z,1.77
2023-02-26T06:21:10.158Z,1.60
2023-02-26T06:23:38.604Z,1.90
2023-02-26T06:26:08.291Z,2.50
2023-02-26T06:28:36.559Z,3.07
2023-02-26T06:31:05.434Z,2.30
2023-02-26T06:33:33.729Z,2.57
2023-02-26T06:36:02.509Z,3.00
2023-02-26T06:38:31.172Z,4.37
2023-02-26T06:40:59.361Z,3.57
2023-02-26T06:43:29.319Z,4.67
2023-02-26T06:45:59.800Z,3.20
2023-02-26T06:48:28.641Z,3.03
2023-02-26T06:50:56.912Z,2.47
2023-02-26T06:53:25.679Z,2.07
2023-02-26T06:55:54.396Z,2.90
2023-02-26T06:58:22.801Z,2.10
2023-02-26T07:00:52.486Z,3.80
2023-02-26T07:03:21.885Z,3.07
2023-02-26T07:05:50.356Z,2.97
2023-02-26T07:08:18.685Z,2.00
2023-02-26T07:10:49.260Z,2.30
2023-02-26T07:13:18.089Z,2.20
2023-02-26T07:15:46.443Z,2.47
2023-02-26T07:18:16.606Z,1.90
2023-02-26T07:20:45.635Z,2.00
2023-02-26T07:23:13.921Z,2.03
2023-02-26T07:25:42.170Z,1.50
2023-02-26T07:28:10.459Z,1.50
2023-02-26T07:30:38.657Z,1.60
2023-02-26T07:33:07.005Z,1.77
2023-02-26T07:35:36.913Z,1.50
2023-02-26T07:38:05.315Z,1.73
2023-02-26T07:40:34.232Z,1.70
2023-02-26T07:43:03.560Z,1.93
2023-02-26T07:45:32.001Z,1.80
2023-02-26T07:48:00.660Z,2.20
2023-02-26T07:50:28.979Z,1.40
2023-02-26T07:52:58.518Z,1.70
2023-02-26T07:55:27.722Z,1.93
2023-02-26T07:57:56.089Z,1.80
2023-02-26T08:00:24.604Z,1.60
2023-02-26T08:02:52.815Z,3.50
2023-02-26T08:05:21.052Z,2.07
2023-02-26T08:07:49.238Z,3.83
2023-02-26T08:10:19.456Z,5.13
2023-02-26T08:12:47.691Z,4.13
2023-02-26T08:15:15.882Z,2.87
2023-02-26T08:17:44.114Z,2.30
2023-02-26T08:20:15.223Z,2.67
2023-02-26T08:22:43.735Z,1.63
2023-02-26T08:25:12.600Z,1.80
2023-02-26T08:27:42.367Z,1.83
2023-02-26T08:30:13.133Z,2.10
2023-02-26T08:32:42.420Z,1.60
2023-02-26T08:35:11.431Z,1.43
2023-02-26T08:37:39.781Z,1.50
2023-02-26T08:40:11.587Z,1.80
2023-02-26T08:42:42.194Z,2.07
2023-02-26T08:45:12.069Z,1.80
2023-02-26T08:47:53.958Z,1.70
2023-02-26T08:50:24.454Z,1.60
2023-02-26T08:52:52.874Z,1.63
2023-02-26T08:55:21.151Z,1.70
2023-02-26T08:57:50.813Z,1.70
2023-02-26T09:00:20.334Z,1.43
2023-02-26T09:02:48.750Z,1.40
2023-02-26T09:05:17.601Z,1.50
2023-02-26T09:07:46.439Z,1.40
2023-02-26T09:10:15.691Z,1.60
2023-02-26T09:12:44.717Z,1.50
2023-02-26T09:15:15.481Z,1.83
2023-02-26T09:17:44.187Z,1.50
2023-02-26T09:20:14.510Z,1.43
2023-02-26T09:22:43.384Z,1.40
2023-02-26T09:25:12.865Z,1.30
2023-02-26T09:27:41.098Z,1.87
2023-02-26T09:30:11.117Z,1.30
2023-02-26T09:32:40.750Z,1.30
2023-02-26T09:35:10.006Z,1.40
2023-02-26T09:37:38.338Z,1.50
2023-02-26T09:40:08.714Z,1.73
2023-02-26T09:43:00.047Z,1.27
2023-02-26T09:45:35.289Z,1.27
2023-02-26T09:48:07.340Z,1.20
2023-02-26T09:50:43.525Z,1.33
2023-02-26T09:53:19.178Z,1.47
2023-02-26T09:55:50.270Z,2.60
2023-02-26T09:58:23.941Z,3.50
2023-02-26T10:01:03.345Z,1.90
2023-02-26T10:03:44.594Z,1.77
2023-02-26T10:06:24.900Z,1.80
2023-02-26T10:09:12.649Z,2.00
2023-02-26T10:11:49.823Z,1.40
2023-02-26T10:14:24.475Z,1.60
2023-02-26T10:16:56.471Z,1.70
2023-02-26T10:19:31.939Z,1.43
2023-02-26T10:22:07.503Z,2.00
2023-02-26T10:24:44.282Z,1.53
2023-02-26T10:27:17.248Z,1.60
2023-02-26T10:29:53.767Z,1.20
2023-02-26T10:32:27.780Z,2.13
2023-02-26T10:35:09.152Z,1.40
2023-02-26T10:37:49.672Z,1.37
2023-02-26T10:40:25.882Z,1.47
2023-02-26T10:43:00.876Z,1.20
2023-02-26T10:45:43.738Z,1.27
2023-02-26T10:48:28.606Z,1.30
2023-02-26T10:51:01.156Z,1.30
2023-02-26T10:53:32.279Z,1.37
2023-02-26T10:56:07.609Z,2.03
2023-02-26T10:58:35.909Z,1.60
2023-02-26T11:01:04.578Z,1.20
2023-02-26T11:03:39.441Z,1.30
2023-02-26T11:06:11.598Z,1.50
2023-02-26T11:08:45.136Z,1.30
2023-02-26T11:11:38.606Z,1.30
2023-02-26T11:14:06.917Z,1.27
2023-02-26T11:16:36.451Z,1.30
2023-02-26T11:19:07.797Z,1.10
2023-02-26T11:21:42.073Z,1.00
2023-02-26T11:24:16.388Z,1.20
2023-02-26T11:26:49.000Z,1.30
2023-02-26T11:29:21.619Z,1.10
2023-02-26T11:31:52.785Z,1.10
2023-02-26T11:34:25.068Z,1.23
2023-02-26T11:36:59.481Z,1.00
2023-02-26T11:39:30.572Z,1.30
2023-02-26T11:42:01.307Z,1.50
2023-02-26T11:44:37.655Z,1.00
2023-02-26T11:47:11.326Z,1.50
2023-02-26T11:49:44.242Z,1.40
2023-02-26T11:52:29.429Z,1.37
2023-02-26T11:55:04.401Z,1.20
2023-02-26T11:57:34.399Z,1.00
2023-02-26T12:00:20.157Z,1.10
2023-02-26T12:02:48.360Z,0.90
2023-02-26T12:05:19.150Z,1.00
2023-02-26T12:07:48.902Z,1.20
2023-02-26T12:10:23.977Z,0.80
2023-02-26T12:13:11.417Z,0.77
2023-02-26T12:15:52.846Z,0.83
2023-02-26T12:18:42.933Z,0.80
2023-02-26T12:21:27.758Z,1.00
2023-02-26T12:24:25.708Z,1.23
2023-02-26T12:27:01.227Z,1.20
2023-02-26T12:29:59.602Z,1.00
2023-02-26T12:32:57.772Z,1.00
2023-02-26T12:35:42.871Z,1.20
2023-02-26T12:38:21.467Z,1.23
2023-02-26T12:41:25.095Z,1.23
2023-02-26T12:43:56.502Z,1.10
2023-02-26T12:46:50.850Z,1.17
2023-02-26T12:49:50.591Z,1.03
2023-02-26T12:52:51.578Z,1.20
2023-02-26T12:55:34.769Z,0.97
2023-02-26T12:58:55.701Z,1.00
2023-02-26T13:01:59.568Z,1.03
2023-02-26T13:05:01.339Z,1.07
2023-02-26T13:07:51.924Z,0.90
2023-02-26T13:10:30.234Z,0.90
2023-02-26T13:13:22.161Z,1.20
2023-02-26T13:16:15.537Z,1.13
2023-02-26T13:18:52.615Z,1.07
2023-02-26T13:21:25.029Z,1.13
2023-02-26T13:23:58.917Z,0.97
2023-02-26T13:26:29.866Z,1.10
2023-02-26T13:29:03.782Z,1.20
2023-02-26T13:31:41.129Z,1.10
2023-02-26T13:34:16.691Z,0.97
2023-02-26T13:36:46.161Z,1.00
2023-02-26T13:39:46.532Z,1.10
2023-02-26T13:42:29.380Z,0.90
2023-02-26T13:45:24.945Z,1.00
2023-02-26T13:48:18.230Z,1.00
2023-02-26T13:50:59.222Z,1.23
2023-02-26T13:53:53.674Z,1.40
2023-02-26T13:57:09.771Z,1.37
2023-02-26T13:59:50.463Z,1.17
2023-02-26T14:02:53.922Z,1.10
2023-02-26T14:06:08.942Z,1.10
2023-02-26T14:08:51.219Z,1.10
2023-02-26T14:11:48.680Z,0.90
2023-02-26T14:14:34.303Z,1.30
2023-02-26T14:17:32.038Z,1.30
2023-02-26T14:20:26.330Z,1.47
2023-02-26T14:23:14.990Z,1.30
2023-02-26T14:25:49.003Z,1.50
2023-02-26T14:28:46.774Z,1.00
2023-02-26T14:31:22.253Z,1.00
2023-02-26T14:34:14.808Z,1.10
2023-02-26T14:36:48.524Z,0.97
2023-02-26T14:39:31.889Z,1.10
2023-02-26T14:42:04.889Z,1.00
2023-02-26T14:44:38.847Z,1.00
2023-02-26T14:47:07.577Z,0.93
2023-02-26T14:49:39.874Z,0.80
2023-02-26T14:52:35.889Z,0.97
2023-02-26T14:55:47.117Z,1.10
2023-02-26T14:58:40.489Z,0.90
2023-02-26T15:01:23.803Z,1.00
2023-02-26T15:04:29.901Z,1.10
2023-02-26T15:07:33.216Z,1.00
2023-02-26T15:10:24.178Z,0.80
2023-02-26T15:13:15.374Z,1.37
2023-02-26T15:15:55.225Z,1.53
2023-02-26T15:18:42.125Z,1.10
2023-02-26T15:21:20.718Z,1.10
2023-02-26T15:23:51.760Z,1.10
2023-02-26T15:26:26.561Z,1.00
2023-02-26T15:28:55.820Z,1.20
2023-02-26T15:31:34.310Z,1.03
2023-02-26T15:34:03.109Z,1.30
2023-02-26T15:36:32.940Z,1.10
2023-02-26T15:39:04.076Z,1.10
2023-02-26T15:41:33.879Z,1.30
2023-02-26T15:44:07.502Z,1.63
2023-02-26T15:46:40.424Z,0.90
2023-02-26T15:49:13.467Z,0.80
2023-02-26T15:51:43.078Z,0.90
2023-02-26T15:54:19.002Z,1.03
2023-02-26T15:56:49.467Z,1.20
2023-02-26T15:59:22.159Z,5.30
2023-02-26T16:01:51.116Z,6.67
2023-02-26T16:04:22.425Z,6.57
2023-02-26T16:06:55.732Z,1.77
2023-02-26T16:09:29.964Z,2.80
2023-02-26T16:12:02.290Z,2.50
2023-02-26T16:14:36.556Z,1.30
2023-02-26T16:17:07.355Z,1.23
2023-02-26T16:19:41.526Z,1.10
2023-02-26T16:22:22.622Z,1.20
2023-02-26T16:24:58.768Z,1.00
2023-02-26T16:27:30.926Z,1.40
2023-02-26T16:30:02.208Z,1.00
2023-02-26T16:32:35.438Z,1.30
2023-02-26T16:35:16.454Z,1.40
2023-02-26T16:37:49.886Z,2.27
2023-02-26T16:40:24.051Z,1.57
2023-02-26T16:43:03.419Z,1.30
2023-02-26T16:45:50.804Z,1.30
2023-02-26T16:48:24.178Z,1.50
2023-02-26T16:51:00.125Z,1.47
2023-02-26T16:53:36.245Z,1.40
2023-02-26T16:56:06.166Z,1.77
2023-02-26T16:58:36.367Z,1.30
2023-02-26T17:01:10.192Z,1.50
2023-02-26T17:03:40.560Z,1.20
2023-02-26T17:06:20.414Z,1.70
2023-02-26T17:08:53.474Z,1.83
2023-02-26T17:11:28.123Z,2.00
2023-02-26T17:14:11.818Z,2.17
2023-02-26T17:16:40.061Z,2.40
2023-02-26T17:19:09.551Z,3.53
2023-02-26T17:21:43.704Z,2.87
2023-02-26T17:24:18.859Z,1.40
2023-02-26T17:26:48.333Z,1.50
2023-02-26T17:29:24.041Z,1.20
2023-02-26T17:31:53.025Z,1.60
2023-02-26T17:34:23.044Z,2.10
2023-02-26T17:36:51.579Z,1.77
2023-02-26T17:39:19.835Z,1.80
2023-02-26T17:41:49.064Z,2.03
2023-02-26T17:44:19.825Z,1.60
2023-02-26T17:46:48.128Z,1.90
2023-02-26T17:49:16.563Z,2.50
2023-02-26T17:51:44.856Z,4.37
2023-02-26T17:54:13.557Z,3.57
2023-02-26T17:56:43.463Z,4.03
2023-02-26T17:59:13.003Z,2.27
2023-02-26T18:01:42.840Z,2.50
2023-02-26T18:04:12.335Z,1.50
2023-02-26T18:06:40.637Z,1.10
2023-02-26T18:09:09.021Z,1.00
2023-02-26T18:11:38.191Z,3.97
2023-02-26T18:14:07.205Z,1.70
2023-02-26T18:16:40.295Z,1.50
2023-02-26T18:19:14.861Z,1.97
2023-02-26T18:21:53.166Z,1.03
2023-02-26T18:24:21.403Z,1.50
2023-02-26T18:26:49.604Z,1.00
2023-02-26T18:29:17.953Z,1.23
2023-02-26T18:31:46.300Z,1.03
2023-02-26T18:34:15.928Z,1.20
2023-02-26T18:36:44.142Z,1.27
2023-02-26T18:39:16.338Z,1.20
2023-02-26T18:41:44.603Z,1.10
2023-02-26T18:44:12.935Z,1.10
2023-02-26T18:46:41.837Z,1.00
2023-02-26T18:49:21.171Z,1.23
2023-02-26T18:51:49.748Z,1.07
2023-02-26T18:54:18.018Z,0.97
2023-02-26T18:56:47.133Z,1.30
2023-02-26T18:59:15.448Z,1.80
2023-02-26T19:01:43.841Z,1.70
2023-02-26T19:04:12.374Z,1.20
2023-02-26T19:06:41.981Z,1.30
2023-02-26T19:09:10.313Z,1.40
2023-02-26T19:11:38.942Z,1.30
2023-02-26T19:14:07.305Z,1.50
2023-02-26T19:16:38.870Z,1.70
2023-02-26T19:19:10.654Z,1.67
2023-02-26T19:21:42.016Z,1.90
2023-02-26T19:24:12.483Z,2.53
2023-02-26T19:26:41.207Z,2.13
2023-02-26T19:29:13.484Z,2.10
2023-02-26T19:31:41.967Z,2.00
2023-02-26T19:34:10.274Z,2.10
2023-02-26T19:36:42.772Z,2.57
2023-02-26T19:39:12.760Z,2.40
2023-02-26T19:41:41.157Z,2.73
2023-02-26T19:44:09.418Z,3.77
2023-02-26T19:46:37.747Z,6.00
2023-02-26T19:49:06.052Z,5.17
2023-02-26T19:51:34.529Z,2.77
2023-02-26T19:54:02.902Z,2.67
2023-02-26T19:56:32.961Z,5.93
2023-02-26T19:59:01.514Z,6.93
2023-02-26T20:01:30.217Z,12.43
2023-02-26T20:03:58.744Z,9.57
2023-02-26T20:06:27.088Z,3.23
2023-02-26T20:08:55.514Z,1.90
2023-02-26T20:11:23.887Z,2.17
2023-02-26T20:13:53.522Z,1.30
2023-02-26T20:16:21.935Z,1.00
2023-02-26T20:18:50.344Z,1.03
2023-02-26T20:21:18.845Z,1.30
2023-02-26T20:23:47.164Z,1.00
2023-02-26T20:26:18.116Z,1.13
2023-02-26T20:28:46.373Z,1.10
2023-02-26T20:31:16.809Z,1.30
2023-02-26T20:33:45.332Z,1.07
2023-02-26T20:36:13.685Z,1.10
2023-02-26T20:38:42.828Z,1.30
2023-02-26T20:41:11.777Z,1.20
2023-02-26T20:43:40.096Z,1.40
2023-02-26T20:46:08.371Z,1.17
2023-02-26T20:48:41.698Z,1.57
2023-02-26T20:51:12.062Z,1.27
2023-02-26T20:53:40.776Z,1.50
2023-02-26T20:56:09.398Z,1.30
2023-02-26T20:58:39.183Z,0.97
2023-02-26T21:01:07.624Z,1.10
2023-02-26T21:03:37.410Z,1.30
2023-02-26T21:06:33.216Z,1.10
2023-02-26T21:09:02.671Z,1.30
2023-02-26T21:11:32.039Z,1.33
2023-02-26T21:14:00.687Z,1.23
2023-02-26T21:16:29.675Z,1.07
2023-02-26T21:19:00.516Z,1.00
2023-02-26T21:21:29.279Z,1.03
2023-02-26T21:23:58.338Z,1.10
2023-02-26T21:26:27.737Z,1.10
2023-02-26T21:28:56.132Z,1.40
2023-02-26T21:31:24.654Z,1.30
2023-02-26T21:33:53.009Z,1.40
2023-02-26T21:36:22.818Z,1.20
2023-02-26T21:38:51.113Z,1.47
2023-02-26T21:41:20.397Z,1.23
2023-02-26T21:43:48.830Z,1.10
2023-02-26T21:46:17.428Z,1.57
2023-02-26T21:48:48.775Z,1.20
2023-02-26T21:51:17.374Z,1.50
2023-02-26T21:53:47.371Z,1.13
2023-02-26T21:56:15.993Z,1.17
2023-02-26T21:58:44.650Z,1.97
2023-02-26T22:01:13.136Z,1.30
2023-02-26T22:03:41.406Z,1.57
2023-02-26T22:06:09.662Z,1.10
2023-02-26T22:08:37.932Z,1.40
2023-02-26T22:11:07.722Z,1.10
2023-02-26T22:13:36.000Z,1.20
2023-02-26T22:16:04.723Z,1.30
2023-02-26T22:18:33.023Z,1.40
2023-02-26T22:21:01.363Z,1.30
2023-02-26T22:23:29.689Z,1.50
2023-02-26T22:25:57.930Z,1.50
2023-02-26T22:28:27.479Z,1.40
2023-02-26T22:30:56.309Z,1.30
2023-02-26T22:33:25.018Z,1.40
2023-02-26T22:35:56.868Z,1.13
2023-02-26T22:38:25.352Z,1.53
2023-02-26T22:40:53.842Z,1.43
2023-02-26T22:43:22.395Z,1.30
2023-02-26T22:45:52.041Z,1.37
2023-02-26T22:48:20.898Z,1.37
2023-02-26T22:50:50.703Z,1.50
2023-02-26T22:53:18.955Z,1.57
2023-02-26T22:55:47.246Z,1.67
2023-02-26T22:58:15.438Z,1.20
2023-02-26T23:00:44.338Z,1.40
2023-02-26T23:03:16.476Z,1.43
2023-02-26T23:05:44.971Z,1.40
2023-02-26T23:08:13.125Z,1.60
2023-02-26T23:10:41.354Z,1.60
2023-02-26T23:13:09.614Z,1.33
2023-02-26T23:15:38.349Z,1.57
2023-02-26T23:18:06.612Z,1.50
2023-02-26T23:20:36.227Z,1.30
2023-02-26T23:23:04.507Z,1.70
2023-02-26T23:25:32.879Z,1.40
2023-02-26T23:28:01.074Z,1.30
2023-02-26T23:30:29.332Z,1.63
2023-02-26T23:32:57.969Z,1.73
2023-02-26T23:35:26.258Z,1.40
2023-02-26T23:37:55.791Z,1.50
2023-02-26T23:40:24.092Z,1.73
2023-02-26T23:42:53.185Z,1.50
2023-02-26T23:45:21.468Z,1.70
2023-02-26T23:47:49.895Z,1.67
2023-02-26T23:50:20.667Z,1.43
2023-02-26T23:52:48.940Z,1.77
2023-02-26T23:55:18.840Z,1.90
2023-02-26T23:57:47.561Z,1.90
